createdAt,value
2018-06-01T00:01:04.586Z,17.70
2018-06-01T00:03:33.436Z,17.73
2018-06-01T00:06:02.326Z,16.93
2018-06-01T00:08:31.531Z,17.03
2018-06-01T00:11:00.397Z,16.83
2018-06-01T00:13:29.223Z,17.80
2018-06-01T00:15:58.096Z,18.33
2018-06-01T00:18:26.948Z,16.43
2018-06-01T00:20:55.788Z,16.37
2018-06-01T00:23:24.627Z,16.23
2018-06-01T00:25:53.472Z,16.27
2018-06-01T00:28:22.318Z,19.10
2018-06-01T00:30:51.147Z,17.60
2018-06-01T00:33:19.985Z,17.50
2018-06-01T00:35:48.830Z,17.10
2018-06-01T00:38:17.680Z,17.77
2018-06-01T00:40:46.512Z,18.87
2018-06-01T00:43:15.401Z,20.48
2018-06-01T00:45:44.265Z,17.70
2018-06-01T00:48:13.152Z,17.23
2018-06-01T00:50:41.963Z,17.53
2018-06-01T00:53:10.819Z,18.23
2018-06-01T00:55:39.688Z,17.83
2018-06-01T00:58:08.557Z,17.57
2018-06-01T01:00:37.395Z,17.47
2018-06-01T01:03:06.277Z,18.37
2018-06-01T01:05:35.109Z,16.70
2018-06-01T01:08:03.982Z,17.43
2018-06-01T01:10:32.840Z,17.87
2018-06-01T01:13:01.670Z,19.20
2018-06-01T01:15:30.548Z,18.97
2018-06-01T01:17:59.401Z,17.93
2018-06-01T01:20:28.241Z,18.63
2018-06-01T01:22:57.073Z,21.80
2018-06-01T01:25:25.921Z,18.90
2018-06-01T01:27:54.862Z,19.33
2018-06-01T01:30:23.701Z,18.33
2018-06-01T01:32:52.560Z,17.53
2018-06-01T01:35:21.437Z,18.13
2018-06-01T01:37:50.256Z,19.67
2018-06-01T01:40:19.146Z,16.53
2018-06-01T01:42:48.030Z,17.07
2018-06-01T01:45:16.906Z,16.60
2018-06-01T01:47:45.757Z,16.47
2018-06-01T01:50:14.586Z,16.23
2018-06-01T01:52:43.477Z,16.83
2018-06-01T01:55:12.349Z,18.20
2018-06-01T01:57:41.176Z,18.03
2018-06-01T02:00:10.063Z,18.00
2018-06-01T02:02:38.952Z,19.15
2018-06-01T02:05:07.811Z,19.00
2018-06-01T02:07:36.672Z,18.27
2018-06-01T02:10:05.535Z,18.07
2018-06-01T02:12:34.370Z,17.33
2018-06-01T02:15:03.225Z,18.10
2018-06-01T02:17:32.072Z,16.87
2018-06-01T02:20:00.984Z,17.93
2018-06-01T02:22:29.769Z,18.93
2018-06-01T02:24:58.643Z,17.77
2018-06-01T02:27:27.477Z,16.73
2018-06-01T02:29:56.339Z,17.50
2018-06-01T02:32:25.207Z,17.07
2018-06-01T02:34:54.058Z,16.20
2018-06-01T02:37:22.904Z,15.77
2018-06-01T02:39:51.773Z,17.17
2018-06-01T02:42:20.617Z,18.17
2018-06-01T02:44:49.452Z,16.23
2018-06-01T02:47:18.285Z,16.07
2018-06-01T02:49:47.149Z,16.00
2018-06-01T02:52:16.007Z,16.60
2018-06-01T02:54:44.883Z,15.37
2018-06-01T02:57:13.729Z,15.47
2018-06-01T02:59:42.613Z,15.23
2018-06-01T03:02:11.467Z,15.73
2018-06-01T03:04:40.323Z,14.60
2018-06-01T03:07:11.970Z,13.90
2018-06-01T03:09:40.816Z,13.13
2018-06-01T03:12:09.637Z,13.63
2018-06-01T03:14:38.516Z,14.70
2018-06-01T03:17:07.364Z,16.30
2018-06-01T03:19:36.207Z,16.73
2018-06-01T03:22:05.075Z,16.43
2018-06-01T03:24:33.932Z,14.90
2018-06-01T03:27:02.764Z,18.65
2018-06-01T03:29:31.604Z,16.30
2018-06-01T03:32:00.445Z,16.50
2018-06-01T03:34:29.335Z,17.17
2018-06-01T03:36:58.152Z,15.90
2018-06-01T03:39:27.005Z,15.00
2018-06-01T03:41:55.845Z,15.90
2018-06-01T03:44:24.713Z,16.20
2018-06-01T03:46:53.604Z,16.77
2018-06-01T03:49:22.478Z,15.80
2018-06-01T03:51:51.334Z,15.50
2018-06-01T03:54:20.173Z,17.17
2018-06-01T03:56:49.027Z,15.40
2018-06-01T03:59:17.857Z,15.40
2018-06-01T04:01:46.724Z,16.50
2018-06-01T04:04:15.583Z,17.10
2018-06-01T04:06:44.472Z,18.17
2018-06-01T04:09:13.535Z,19.23
2018-06-01T04:11:42.370Z,18.63
2018-06-01T04:14:11.220Z,20.00
2018-06-01T04:16:40.052Z,20.30
2018-06-01T04:19:08.905Z,19.63
2018-06-01T04:21:37.760Z,20.17
2018-06-01T04:24:06.619Z,18.50
2018-06-01T04:26:35.482Z,19.00
2018-06-01T04:29:04.328Z,19.23
2018-06-01T04:31:33.200Z,20.90
2018-06-01T04:34:02.047Z,21.60
2018-06-01T04:36:30.891Z,19.13
2018-06-01T04:38:59.748Z,18.13
2018-06-01T04:41:28.576Z,17.37
2018-06-01T04:43:57.464Z,17.47
2018-06-01T04:46:26.302Z,17.70
2018-06-01T04:48:55.120Z,19.67
2018-06-01T04:51:23.948Z,23.87
2018-06-01T04:53:52.794Z,22.23
2018-06-01T04:56:21.654Z,22.10
2018-06-01T04:58:50.516Z,26.30
2018-06-01T05:01:19.360Z,27.43
2018-06-01T05:03:48.206Z,26.63
2018-06-01T05:06:17.051Z,30.00
2018-06-01T05:08:45.898Z,29.13
2018-06-01T05:11:14.725Z,28.83
2018-06-01T05:13:43.567Z,28.33
2018-06-01T05:16:12.410Z,29.57
2018-06-01T05:18:41.275Z,32.97
2018-06-01T05:21:10.134Z,33.60
2018-06-01T05:23:38.952Z,39.70
2018-06-01T05:26:07.815Z,37.67
2018-06-01T05:28:36.667Z,39.13
2018-06-01T05:31:05.509Z,39.70
2018-06-01T05:33:34.381Z,37.60
2018-06-01T05:36:03.236Z,39.53
2018-06-01T05:38:32.074Z,38.43
2018-06-01T05:41:01.051Z,40.37
2018-06-01T05:43:29.928Z,44.88
2018-06-01T05:45:58.795Z,38.47
2018-06-01T05:48:27.685Z,39.47
2018-06-01T05:50:56.524Z,42.87
2018-06-01T05:53:25.341Z,45.30
2018-06-01T05:55:54.193Z,47.00
2018-06-01T05:58:23.056Z,46.47
2018-06-01T06:00:51.910Z,51.43
2018-06-01T06:03:20.758Z,50.83
2018-06-01T06:05:49.973Z,54.70
2018-06-01T06:08:18.801Z,53.00
2018-06-01T06:10:47.659Z,52.80
2018-06-01T06:13:16.567Z,49.57
2018-06-01T06:15:45.370Z,50.60
2018-06-01T06:18:14.324Z,55.40
2018-06-01T06:20:43.198Z,57.43
2018-06-01T06:23:12.032Z,61.67
2018-06-01T06:25:40.924Z,63.63
2018-06-01T06:28:09.797Z,69.33
2018-06-01T06:30:38.650Z,62.27
2018-06-01T06:33:07.481Z,67.33
2018-06-01T06:35:36.331Z,77.03
2018-06-01T06:38:05.584Z,81.30
2018-06-01T06:40:34.437Z,73.53
2018-06-01T06:43:03.298Z,85.70
2018-06-01T06:45:32.125Z,93.17
2018-06-01T06:48:01.023Z,98.10
2018-06-01T06:50:29.909Z,97.20
2018-06-01T06:52:58.768Z,106.67
2018-06-01T06:55:27.642Z,101.57
2018-06-01T06:57:56.477Z,98.03
2018-06-01T07:00:25.423Z,104.00
2018-06-01T07:02:54.312Z,99.33
2018-06-01T07:05:23.188Z,92.87
2018-06-01T07:07:52.048Z,97.90
2018-06-01T07:10:20.908Z,95.70
2018-06-01T07:12:49.800Z,93.60
2018-06-01T07:15:18.659Z,90.57
2018-06-01T07:17:47.554Z,86.43
2018-06-01T07:20:16.460Z,89.23
2018-06-01T07:22:45.259Z,79.27
2018-06-01T07:25:15.528Z,72.87
2018-06-01T07:27:44.513Z,77.70
2018-06-01T07:30:13.379Z,78.02
2018-06-01T07:32:42.250Z,76.10
2018-06-01T07:35:11.097Z,67.70
2018-06-01T07:37:39.944Z,63.27
2018-06-01T07:40:08.837Z,61.35
2018-06-01T07:42:37.710Z,59.75
2018-06-01T07:45:06.570Z,53.58
2018-06-01T07:47:35.406Z,50.80
2018-06-01T07:50:04.319Z,51.37
2018-06-01T07:52:33.172Z,47.23
2018-06-01T07:55:02.081Z,42.10
2018-06-01T07:57:30.937Z,41.23
2018-06-01T07:59:59.766Z,40.92
2018-06-01T08:02:28.626Z,39.38
2018-06-01T08:04:57.520Z,37.48
2018-06-01T08:07:26.384Z,35.88
2018-06-01T08:09:55.251Z,36.38
2018-06-01T08:12:24.113Z,35.33
2018-06-01T08:14:52.977Z,33.63
2018-06-01T08:17:21.824Z,31.25
2018-06-01T08:19:50.679Z,28.67
2018-06-01T08:22:19.552Z,32.65
2018-06-01T08:24:48.391Z,28.25
2018-06-01T08:27:17.243Z,26.90
2018-06-01T08:29:46.099Z,29.12
2018-06-01T08:32:15.091Z,28.60
2018-06-01T08:34:43.906Z,28.35
2018-06-01T08:37:12.755Z,28.15
2018-06-01T08:39:42.157Z,25.95
2018-06-01T08:42:14.146Z,26.35
2018-06-01T08:44:43.170Z,26.48
2018-06-01T08:47:14.721Z,25.02
2018-06-01T08:49:44.086Z,28.17
2018-06-01T08:52:18.743Z,24.80
2018-06-01T08:54:48.070Z,23.22
2018-06-01T08:57:19.848Z,20.72
2018-06-01T08:59:57.204Z,19.30
2018-06-01T09:02:26.344Z,18.07
2018-06-01T09:04:55.254Z,17.82
2018-06-01T09:07:24.317Z,19.45
2018-06-01T09:09:53.415Z,16.20
2018-06-01T09:12:22.870Z,16.15
2018-06-01T09:14:52.613Z,16.48
2018-06-01T09:17:22.340Z,16.80
2018-06-01T09:19:54.710Z,16.40
2018-06-01T09:22:24.139Z,15.72
2018-06-01T09:24:54.204Z,16.57
2018-06-01T09:27:23.682Z,17.48
2018-06-01T09:29:52.799Z,18.35
2018-06-01T09:32:21.957Z,19.70
2018-06-01T09:34:51.402Z,17.57
2018-06-01T09:37:20.672Z,19.10
2018-06-01T09:39:53.628Z,23.57
2018-06-01T09:42:24.549Z,21.87
2018-06-01T09:44:53.792Z,23.65
2018-06-01T09:47:26.221Z,21.90
2018-06-01T09:49:55.337Z,22.13
2018-06-01T09:52:24.809Z,25.30
2018-06-01T09:54:54.085Z,25.75
2018-06-01T09:57:23.106Z,23.87
2018-06-01T09:59:54.562Z,20.12
2018-06-01T10:02:26.198Z,25.33
2018-06-01T10:04:55.624Z,22.42
2018-06-01T10:07:24.746Z,23.32
2018-06-01T10:10:13.175Z,22.48
2018-06-01T10:12:43.497Z,22.87
2018-06-01T10:15:13.110Z,23.67
2018-06-01T10:17:45.831Z,25.97
2018-06-01T10:20:16.185Z,23.35
2018-06-01T10:22:48.379Z,23.07
2018-06-01T10:25:18.115Z,24.35
2018-06-01T10:27:48.225Z,24.67
2018-06-01T10:30:18.170Z,25.25
2018-06-01T10:32:48.116Z,26.75
2018-06-01T10:35:18.974Z,24.35
2018-06-01T10:37:48.741Z,22.95
2018-06-01T10:40:18.170Z,25.60
2018-06-01T10:42:47.690Z,25.82
2018-06-01T10:45:17.265Z,26.35
2018-06-01T10:47:46.734Z,23.45
2018-06-01T10:50:15.950Z,25.12
2018-06-01T10:52:45.332Z,47.33
2018-06-01T10:55:14.902Z,47.53
2018-06-01T10:57:44.067Z,49.05
2018-06-01T11:00:13.797Z,54.60
2018-06-01T11:02:44.097Z,51.77
2018-06-01T11:05:13.540Z,54.20
2018-06-01T11:07:45.641Z,53.87
2018-06-01T11:10:15.122Z,57.83
2018-06-01T11:12:44.346Z,59.37
2018-06-01T11:15:14.181Z,60.13
2018-06-01T11:17:43.358Z,60.93
2018-06-01T11:20:12.795Z,58.70
2018-06-01T11:22:41.915Z,64.90
2018-06-01T11:25:13.905Z,71.83
2018-06-01T11:27:42.946Z,70.73
2018-06-01T11:30:12.446Z,74.03
2018-06-01T11:32:41.573Z,78.13
2018-06-01T11:35:13.153Z,72.23
2018-06-01T11:37:42.145Z,76.17
2018-06-01T11:40:11.294Z,76.53
2018-06-01T11:42:43.339Z,71.20
2018-06-01T11:45:12.540Z,75.60
2018-06-01T11:47:41.996Z,80.93
2018-06-01T11:50:11.560Z,89.28
2018-06-01T11:52:44.153Z,72.87
2018-06-01T11:55:13.207Z,65.77
2018-06-01T11:57:43.986Z,62.83
2018-06-01T12:00:13.154Z,63.47
2018-06-01T12:02:45.052Z,65.10
2018-06-01T12:05:14.242Z,65.97
2018-06-01T12:07:43.303Z,66.67
2018-06-01T12:10:12.558Z,65.43
2018-06-01T12:12:44.681Z,65.93
2018-06-01T12:15:16.501Z,67.30
2018-06-01T12:17:45.569Z,65.90
2018-06-01T12:20:14.848Z,59.00
2018-06-01T12:22:46.927Z,59.40
2018-06-01T12:25:18.792Z,56.70
2018-06-01T12:27:50.430Z,59.97
2018-06-01T12:30:19.913Z,59.47
2018-06-01T12:32:49.480Z,63.27
2018-06-01T12:35:18.567Z,65.13
2018-06-01T12:37:47.761Z,66.47
2018-06-01T12:40:17.134Z,68.77
2018-06-01T12:42:49.242Z,70.17
2018-06-01T12:45:18.534Z,71.63
2018-06-01T12:47:48.387Z,74.60
2018-06-01T12:50:17.606Z,70.37
2018-06-01T12:52:46.899Z,66.67
2018-06-01T12:55:16.054Z,71.60
2018-06-01T12:57:45.441Z,69.30
2018-06-01T13:00:14.957Z,69.70
2018-06-01T13:02:47.394Z,66.57
2018-06-01T13:05:16.779Z,63.40
2018-06-01T13:07:48.824Z,64.60
2018-06-01T13:10:20.833Z,64.07
2018-06-01T13:12:55.930Z,62.40
2018-06-01T13:15:25.037Z,62.50
2018-06-01T13:17:54.411Z,62.90
2018-06-01T13:20:23.649Z,63.87
2018-06-01T13:22:53.170Z,62.67
2018-06-01T13:25:22.243Z,60.27
2018-06-01T13:27:53.800Z,59.30
2018-06-01T13:30:22.989Z,56.50
2018-06-01T13:33:00.227Z,56.17
2018-06-01T13:35:29.371Z,57.93
2018-06-01T13:37:58.529Z,64.35
2018-06-01T13:40:32.435Z,56.87
2018-06-01T13:43:01.500Z,51.90
2018-06-01T13:45:30.744Z,51.13
2018-06-01T13:47:59.748Z,49.07
2018-06-01T13:50:28.885Z,50.83
2018-06-01T13:52:57.988Z,51.73
2018-06-01T13:55:29.919Z,52.47
2018-06-01T13:57:59.121Z,50.97
2018-06-01T14:00:29.439Z,49.87
2018-06-01T14:02:58.806Z,46.10
2018-06-01T14:05:28.329Z,54.93
2018-06-01T14:07:57.579Z,46.53
2018-06-01T14:10:27.356Z,43.70
2018-06-01T14:12:59.867Z,42.77
2018-06-01T14:15:29.302Z,41.13
2018-06-01T14:18:03.532Z,44.40
2018-06-01T14:20:32.837Z,41.63
2018-06-01T14:23:02.044Z,40.17
2018-06-01T14:25:31.408Z,40.00
2018-06-01T14:28:00.970Z,38.97
2018-06-01T14:30:30.486Z,37.63
2018-06-01T14:33:07.339Z,36.70
2018-06-01T14:35:36.583Z,33.38
2018-06-01T14:38:05.884Z,30.80
2018-06-01T14:40:35.064Z,30.57
2018-06-01T14:43:04.093Z,28.43
2018-06-01T14:45:33.233Z,29.37
2018-06-01T14:48:02.631Z,26.40
2018-06-01T14:50:31.958Z,27.23
2018-06-01T14:53:01.708Z,27.77
2018-06-01T14:55:33.325Z,26.37
2018-06-01T14:58:02.349Z,27.13
2018-06-01T15:00:31.793Z,28.57
2018-06-01T15:03:01.097Z,28.07
2018-06-01T15:05:30.429Z,29.93
2018-06-01T15:07:59.572Z,28.27
2018-06-01T15:10:28.712Z,27.97
2018-06-01T15:12:57.752Z,28.83
2018-06-01T15:15:26.923Z,29.33
2018-06-01T15:17:55.944Z,29.23
2018-06-01T15:20:25.160Z,28.57
2018-06-01T15:22:54.441Z,28.43
2018-06-01T15:25:23.687Z,26.13
2018-06-01T15:27:52.777Z,27.30
2018-06-01T15:30:21.991Z,26.00
2018-06-01T15:32:54.293Z,26.87
2018-06-01T15:35:23.443Z,27.43
2018-06-01T15:37:52.518Z,27.73
2018-06-01T15:40:21.663Z,27.23
2018-06-01T15:42:50.823Z,24.47
2018-06-01T15:45:20.142Z,23.90
2018-06-01T15:47:49.264Z,24.67
2018-06-01T15:50:23.311Z,24.27
2018-06-01T15:52:52.497Z,27.13
2018-06-01T15:55:21.564Z,24.57
2018-06-01T15:57:50.859Z,24.43
2018-06-01T16:00:19.913Z,24.90
2018-06-01T16:02:49.163Z,24.10
2018-06-01T16:05:18.423Z,25.27
2018-06-01T16:07:47.811Z,36.33
2018-06-01T16:10:16.805Z,30.77
2018-06-01T16:12:45.939Z,47.47
2018-06-01T16:15:15.126Z,26.00
2018-06-01T16:17:44.100Z,29.70
2018-06-01T16:20:16.134Z,27.73
2018-06-01T16:22:46.477Z,28.83
2018-06-01T16:25:15.853Z,27.67
2018-06-01T16:27:45.518Z,28.47
2018-06-01T16:30:14.648Z,29.63
2018-06-01T16:32:44.165Z,29.17
2018-06-01T16:35:18.837Z,29.83
2018-06-01T16:37:50.957Z,28.77
2018-06-01T16:40:30.987Z,29.63
2018-06-01T16:43:00.179Z,32.83
2018-06-01T16:45:29.312Z,29.17
2018-06-01T16:47:58.547Z,28.17
2018-06-01T16:50:27.815Z,29.33
2018-06-01T16:53:02.989Z,31.57
2018-06-01T16:55:31.898Z,35.87
2018-06-01T16:58:00.766Z,32.40
2018-06-01T17:00:29.660Z,29.10
2018-06-01T17:02:58.535Z,27.93
2018-06-01T17:05:27.401Z,27.67
2018-06-01T17:07:56.414Z,28.27
2018-06-01T17:10:25.212Z,27.60
2018-06-01T17:12:54.101Z,28.00
2018-06-01T17:15:29.286Z,27.67
2018-06-01T17:17:58.125Z,26.07
2018-06-01T17:20:27.004Z,26.50
2018-06-01T17:22:55.978Z,26.00
2018-06-01T17:25:24.920Z,26.23
2018-06-01T17:27:53.784Z,28.53
2018-06-01T17:30:22.686Z,26.60
2018-06-01T17:32:51.556Z,29.60
2018-06-01T17:35:20.458Z,28.67
2018-06-01T17:37:50.834Z,28.53
2018-06-01T17:40:19.690Z,27.70
2018-06-01T17:42:48.587Z,29.10
2018-06-01T17:45:17.459Z,29.27
2018-06-01T17:47:46.376Z,33.83
2018-06-01T17:50:15.233Z,31.70
2018-06-01T17:52:44.627Z,29.83
2018-06-01T17:55:13.513Z,32.50
2018-06-01T17:57:42.538Z,32.27
2018-06-01T18:00:11.428Z,30.03
2018-06-01T18:02:40.345Z,30.47
2018-06-01T18:05:09.212Z,32.97
2018-06-01T18:07:38.048Z,33.07
2018-06-01T18:10:06.927Z,31.00
2018-06-01T18:12:35.774Z,33.03
2018-06-01T18:15:04.656Z,32.57
2018-06-01T18:17:33.646Z,34.47
2018-06-01T18:20:02.669Z,31.50
2018-06-01T18:22:31.591Z,30.97
2018-06-01T18:25:00.422Z,30.03
2018-06-01T18:27:29.295Z,31.37
2018-06-01T18:29:58.110Z,28.97
2018-06-01T18:32:27.027Z,28.20
2018-06-01T18:34:55.911Z,28.20
2018-06-01T18:37:24.776Z,44.17
2018-06-01T18:39:53.642Z,39.63
2018-06-01T18:42:22.500Z,53.30
2018-06-01T18:44:57.752Z,27.27
2018-06-01T18:47:26.596Z,25.27
2018-06-01T18:49:55.483Z,27.37
2018-06-01T18:52:24.319Z,26.00
2018-06-01T18:54:53.547Z,26.23
2018-06-01T18:57:22.360Z,25.97
2018-06-01T18:59:51.182Z,25.83
2018-06-01T19:02:20.101Z,26.33
2018-06-01T19:04:48.943Z,27.57
2018-06-01T19:07:18.106Z,30.90
2018-06-01T19:09:46.948Z,28.33
2018-06-01T19:12:15.906Z,30.70
2018-06-01T19:14:44.864Z,30.77
2018-06-01T19:17:13.753Z,30.37
2018-06-01T19:19:42.600Z,30.73
2018-06-01T19:22:11.449Z,30.50
2018-06-01T19:24:40.300Z,32.03
2018-06-01T19:27:09.342Z,33.03
2018-06-01T19:29:44.476Z,32.77
2018-06-01T19:32:13.348Z,38.23
2018-06-01T19:34:42.268Z,34.10
2018-06-01T19:37:11.151Z,33.97
2018-06-01T19:39:40.033Z,32.97
2018-06-01T19:42:08.941Z,33.90
2018-06-01T19:44:37.807Z,34.23
2018-06-01T19:47:06.683Z,34.53
2018-06-01T19:49:35.553Z,33.60
2018-06-01T19:52:58.704Z,35.03
2018-06-01T19:55:27.555Z,32.53
2018-06-01T19:57:56.463Z,35.13
2018-06-01T20:00:25.301Z,32.70
2018-06-01T20:02:54.142Z,38.30
2018-06-01T20:05:23.027Z,34.43
2018-06-01T20:07:51.914Z,32.90
2018-06-01T20:10:20.810Z,37.50
2018-06-01T20:12:49.662Z,33.17
2018-06-01T20:15:18.760Z,34.80
2018-06-01T20:17:47.687Z,32.97
2018-06-01T20:20:16.521Z,35.80
2018-06-01T20:22:45.372Z,35.03
2018-06-01T20:25:14.320Z,35.70
2018-06-01T20:27:43.209Z,37.70
2018-06-01T20:30:12.258Z,40.03
2018-06-01T20:32:41.124Z,36.00
2018-06-01T20:35:10.004Z,49.20
2018-06-01T20:37:40.086Z,101.93
2018-06-01T20:40:09.004Z,40.43
2018-06-01T20:42:37.909Z,43.50
2018-06-01T20:45:06.762Z,40.17
2018-06-01T20:47:35.861Z,47.62
2018-06-01T20:50:04.740Z,40.33
2018-06-01T20:52:33.617Z,47.27
2018-06-01T20:55:02.480Z,45.97
2018-06-01T20:57:31.357Z,43.43
2018-06-01T21:00:00.413Z,44.93
2018-06-01T21:02:29.270Z,45.25
2018-06-01T21:04:58.101Z,42.53
2018-06-01T21:07:26.989Z,40.60
2018-06-01T21:09:55.849Z,39.57
2018-06-01T21:12:24.747Z,44.27
2018-06-01T21:14:53.612Z,41.17
2018-06-01T21:17:22.576Z,41.73
2018-06-01T21:19:51.443Z,43.07
2018-06-01T21:22:20.402Z,41.37
2018-06-01T21:24:49.268Z,41.37
2018-06-01T21:27:18.172Z,41.67
2018-06-01T21:29:47.068Z,42.87
2018-06-01T21:32:15.915Z,41.13
2018-06-01T21:34:44.810Z,41.80
2018-06-01T21:37:13.683Z,41.60
2018-06-01T21:39:42.548Z,41.50
2018-06-01T21:42:11.457Z,42.20
2018-06-01T21:44:46.524Z,46.43
2018-06-01T21:47:15.358Z,44.50
2018-06-01T21:49:44.227Z,45.87
2018-06-01T21:52:13.110Z,45.23
2018-06-01T21:54:42.087Z,46.47
2018-06-01T21:57:10.869Z,44.20
2018-06-01T21:59:39.754Z,42.53
2018-06-01T22:02:08.671Z,45.73
2018-06-01T22:04:37.545Z,41.13
2018-06-01T22:07:06.669Z,41.77
2018-06-01T22:09:35.531Z,63.43
2018-06-01T22:12:04.451Z,41.83
2018-06-01T22:14:33.312Z,40.43
2018-06-01T22:17:02.170Z,40.90
2018-06-01T22:19:31.015Z,42.27
2018-06-01T22:21:59.907Z,42.97
2018-06-01T22:24:28.762Z,46.10
2018-06-01T22:26:57.646Z,55.20
2018-06-01T22:29:27.745Z,50.47
2018-06-01T22:31:56.616Z,78.33
2018-06-01T22:34:25.525Z,58.90
2018-06-01T22:36:54.391Z,51.10
2018-06-01T22:39:23.242Z,46.13
2018-06-01T22:41:52.178Z,44.70
2018-06-01T22:44:21.185Z,45.80
2018-06-01T22:46:50.057Z,46.63
2018-06-01T22:49:18.922Z,41.50
2018-06-01T22:51:47.764Z,43.30
2018-06-01T22:54:16.656Z,47.67
2018-06-01T22:56:45.522Z,44.97
2018-06-01T22:59:14.385Z,49.90
2018-06-01T23:01:43.227Z,48.50
2018-06-01T23:04:12.097Z,56.20
2018-06-01T23:06:40.990Z,50.90
2018-06-01T23:09:10.184Z,53.07
2018-06-01T23:11:39.142Z,49.70
2018-06-01T23:14:08.018Z,55.07
2018-06-01T23:16:36.862Z,53.67
2018-06-01T23:19:05.808Z,58.57
2018-06-01T23:21:34.655Z,57.50
2018-06-01T23:24:03.524Z,56.77
2018-06-01T23:26:32.508Z,55.40
2018-06-01T23:29:01.344Z,58.53
2018-06-01T23:31:30.230Z,54.43
2018-06-01T23:34:02.146Z,57.20
2018-06-01T23:36:31.043Z,51.87
2018-06-01T23:38:59.927Z,47.97
2018-06-01T23:41:28.848Z,54.37
2018-06-01T23:43:57.726Z,55.67
2018-06-01T23:46:26.600Z,52.37
2018-06-01T23:48:55.456Z,55.00
2018-06-01T23:51:24.319Z,51.97
2018-06-01T23:53:53.264Z,54.93
2018-06-01T23:56:22.085Z,57.67
2018-06-01T23:58:50.937Z,68.07
